sensor_id;sensor_type;location;lat;lon;timestamp;temperature;humidity
13521;DHT22;6832;51.186;3.236;2023-05-31T00:01:34;21.20;51.20
13521;DHT22;6832;51.186;3.236;2023-05-31T00:04:01;21.20;51.20
13521;DHT22;6832;51.186;3.236;2023-05-31T00:06:29;21.20;51.20
13521;DHT22;6832;51.186;3.236;2023-05-31T00:08:55;21.20;51.30
13521;DHT22;6832;51.186;3.236;2023-05-31T00:11:25;21.10;51.10
13521;DHT22;6832;51.186;3.236;2023-05-31T00:13:52;21.10;51.10
13521;DHT22;6832;51.186;3.236;2023-05-31T00:16:19;21.10;51.10
13521;DHT22;6832;51.186;3.236;2023-05-31T00:18:48;21.10;51.20
13521;DHT22;6832;51.186;3.236;2023-05-31T00:21:15;21.10;51.20
13521;DHT22;6832;51.186;3.236;2023-05-31T00:23:42;21.10;51.20
13521;DHT22;6832;51.186;3.236;2023-05-31T00:26:14;21.00;51.10
13521;DHT22;6832;51.186;3.236;2023-05-31T00:28:45;21.00;51.10
13521;DHT22;6832;51.186;3.236;2023-05-31T00:31:13;21.00;51.10
13521;DHT22;6832;51.186;3.236;2023-05-31T00:33:42;21.00;51.10
13521;DHT22;6832;51.186;3.236;2023-05-31T00:36:09;21.00;51.10
13521;DHT22;6832;51.186;3.236;2023-05-31T00:38:37;21.00;51.10
13521;DHT22;6832;51.186;3.236;2023-05-31T00:41:04;21.00;51.20
13521;DHT22;6832;51.186;3.236;2023-05-31T00:43:31;20.90;51.10
13521;DHT22;6832;51.186;3.236;2023-05-31T00:46:04;20.90;51.10
13521;DHT22;6832;51.186;3.236;2023-05-31T00:48:32;20.90;51.10
13521;DHT22;6832;51.186;3.236;2023-05-31T00:50:59;20.90;51.10
13521;DHT22;6832;51.186;3.236;2023-05-31T00:53:27;20.90;51.20
13521;DHT22;6832;51.186;3.236;2023-05-31T00:55:55;20.90;51.10
13521;DHT22;6832;51.186;3.236;2023-05-31T00:58:22;20.90;51.20
13521;DHT22;6832;51.186;3.236;2023-05-31T01:00:50;20.90;51.10
13521;DHT22;6832;51.186;3.236;2023-05-31T01:03:21;20.80;51.10
13521;DHT22;6832;51.186;3.236;2023-05-31T01:05:51;20.80;51.00
13521;DHT22;6832;51.186;3.236;2023-05-31T01:08:18;20.80;51.00
13521;DHT22;6832;51.186;3.236;2023-05-31T01:10:49;20.80;51.10
13521;DHT22;6832;51.186;3.236;2023-05-31T01:13:23;20.80;51.10
13521;DHT22;6832;51.186;3.236;2023-05-31T01:15:57;20.80;51.10
13521;DHT22;6832;51.186;3.236;2023-05-31T01:18:27;20.80;51.00
13521;DHT22;6832;51.186;3.236;2023-05-31T01:20:59;20.80;51.10
13521;DHT22;6832;51.186;3.236;2023-05-31T01:23:34;20.80;51.10
13521;DHT22;6832;51.186;3.236;2023-05-31T01:26:28;20.70;51.10
13521;DHT22;6832;51.186;3.236;2023-05-31T01:28:59;20.80;51.10
13521;DHT22;6832;51.186;3.236;2023-05-31T01:31:32;20.70;51.10
13521;DHT22;6832;51.186;3.236;2023-05-31T01:34:00;20.70;51.10
13521;DHT22;6832;51.186;3.236;2023-05-31T01:36:29;20.70;51.20
13521;DHT22;6832;51.186;3.236;2023-05-31T01:38:56;20.70;51.20
13521;DHT22;6832;51.186;3.236;2023-05-31T01:41:27;20.70;51.10
13521;DHT22;6832;51.186;3.236;2023-05-31T01:43:55;20.70;51.10
13521;DHT22;6832;51.186;3.236;2023-05-31T01:46:25;20.60;51.10
13521;DHT22;6832;51.186;3.236;2023-05-31T01:48:52;20.60;51.00
13521;DHT22;6832;51.186;3.236;2023-05-31T01:51:20;20.60;51.10
13521;DHT22;6832;51.186;3.236;2023-05-31T01:53:52;20.60;51.10
13521;DHT22;6832;51.186;3.236;2023-05-31T01:56:21;20.60;51.10
13521;DHT22;6832;51.186;3.236;2023-05-31T01:58:52;20.60;51.10
13521;DHT22;6832;51.186;3.236;2023-05-31T02:01:25;20.50;51.40
13521;DHT22;6832;51.186;3.236;2023-05-31T02:03:52;20.50;51.00
13521;DHT22;6832;51.186;3.236;2023-05-31T02:06:19;20.50;51.00
13521;DHT22;6832;51.186;3.236;2023-05-31T02:08:48;20.50;51.10
13521;DHT22;6832;51.186;3.236;2023-05-31T02:11:19;20.50;51.00
13521;DHT22;6832;51.186;3.236;2023-05-31T02:13:47;20.50;51.10
13521;DHT22;6832;51.186;3.236;2023-05-31T02:16:23;20.50;51.10
13521;DHT22;6832;51.186;3.236;2023-05-31T02:18:56;20.40;51.00
13521;DHT22;6832;51.186;3.236;2023-05-31T02:21:25;20.50;51.70
13521;DHT22;6832;51.186;3.236;2023-05-31T02:24:00;20.40;51.00
13521;DHT22;6832;51.186;3.236;2023-05-31T02:26:33;20.40;51.10
13521;DHT22;6832;51.186;3.236;2023-05-31T02:29:05;20.40;51.00
13521;DHT22;6832;51.186;3.236;2023-05-31T02:31:33;20.40;51.10
13521;DHT22;6832;51.186;3.236;2023-05-31T02:34:00;20.40;51.00
13521;DHT22;6832;51.186;3.236;2023-05-31T02:36:28;20.40;51.10
13521;DHT22;6832;51.186;3.236;2023-05-31T02:38:59;20.40;51.10
13521;DHT22;6832;51.186;3.236;2023-05-31T02:41:25;20.30;51.10
13521;DHT22;6832;51.186;3.236;2023-05-31T02:43:54;20.30;51.00
13521;DHT22;6832;51.186;3.236;2023-05-31T02:46:27;20.30;51.10
13521;DHT22;6832;51.186;3.236;2023-05-31T02:48:56;20.30;51.10
13521;DHT22;6832;51.186;3.236;2023-05-31T02:51:23;20.30;51.10
13521;DHT22;6832;51.186;3.236;2023-05-31T02:53:50;20.30;51.10
13521;DHT22;6832;51.186;3.236;2023-05-31T02:56:19;20.30;51.10
13521;DHT22;6832;51.186;3.236;2023-05-31T02:58:46;20.30;51.10
13521;DHT22;6832;51.186;3.236;2023-05-31T03:01:13;20.30;51.10
13521;DHT22;6832;51.186;3.236;2023-05-31T03:03:41;20.30;51.10
13521;DHT22;6832;51.186;3.236;2023-05-31T03:06:11;20.30;51.40
13521;DHT22;6832;51.186;3.236;2023-05-31T03:08:42;20.20;51.00
13521;DHT22;6832;51.186;3.236;2023-05-31T03:11:09;20.20;51.10
13521;DHT22;6832;51.186;3.236;2023-05-31T03:13:36;20.20;51.10
13521;DHT22;6832;51.186;3.236;2023-05-31T03:16:04;20.20;51.10
13521;DHT22;6832;51.186;3.236;2023-05-31T03:18:31;20.20;51.10
13521;DHT22;6832;51.186;3.236;2023-05-31T03:20:58;20.20;51.10
13521;DHT22;6832;51.186;3.236;2023-05-31T03:23:26;20.20;51.10
13521;DHT22;6832;51.186;3.236;2023-05-31T03:25:53;20.20;51.10
13521;DHT22;6832;51.186;3.236;2023-05-31T03:28:20;20.20;51.20
13521;DHT22;6832;51.186;3.236;2023-05-31T03:30:49;20.20;51.10
13521;DHT22;6832;51.186;3.236;2023-05-31T03:33:18;20.10;51.10
13521;DHT22;6832;51.186;3.236;2023-05-31T03:35:45;20.10;51.10
13521;DHT22;6832;51.186;3.236;2023-05-31T03:38:14;20.10;51.10
13521;DHT22;6832;51.186;3.236;2023-05-31T03:40:44;20.10;51.10
13521;DHT22;6832;51.186;3.236;2023-05-31T03:43:11;20.10;51.10
13521;DHT22;6832;51.186;3.236;2023-05-31T03:45:39;20.10;51.10
13521;DHT22;6832;51.186;3.236;2023-05-31T03:48:05;20.10;51.20
13521;DHT22;6832;51.186;3.236;2023-05-31T03:50:39;20.00;51.20
13521;DHT22;6832;51.186;3.236;2023-05-31T03:53:06;20.10;51.30
13521;DHT22;6832;51.186;3.236;2023-05-31T03:55:33;20.00;51.20
13521;DHT22;6832;51.186;3.236;2023-05-31T03:58:02;20.00;51.20
13521;DHT22;6832;51.186;3.236;2023-05-31T04:00:29;20.00;51.20
13521;DHT22;6832;51.186;3.236;2023-05-31T04:02:56;20.00;51.30
13521;DHT22;6832;51.186;3.236;2023-05-31T04:05:24;20.00;51.20
13521;DHT22;6832;51.186;3.236;2023-05-31T04:07:52;20.00;51.20
13521;DHT22;6832;51.186;3.236;2023-05-31T04:10:19;20.00;51.30
13521;DHT22;6832;51.186;3.236;2023-05-31T04:12:46;20.00;51.20
13521;DHT22;6832;51.186;3.236;2023-05-31T04:15:14;20.00;51.30
13521;DHT22;6832;51.186;3.236;2023-05-31T04:17:41;20.00;51.20
13521;DHT22;6832;51.186;3.236;2023-05-31T04:20:09;19.90;51.10
13521;DHT22;6832;51.186;3.236;2023-05-31T04:22:39;19.80;51.10
13521;DHT22;6832;51.186;3.236;2023-05-31T04:25:08;19.90;51.20
13521;DHT22;6832;51.186;3.236;2023-05-31T04:27:35;19.90;51.20
13521;DHT22;6832;51.186;3.236;2023-05-31T04:30:07;19.90;51.20
13521;DHT22;6832;51.186;3.236;2023-05-31T04:32:35;19.90;51.20
13521;DHT22;6832;51.186;3.236;2023-05-31T04:35:04;19.90;51.30
13521;DHT22;6832;51.186;3.236;2023-05-31T04:37:34;19.90;51.30
13521;DHT22;6832;51.186;3.236;2023-05-31T04:40:03;19.90;51.30
13521;DHT22;6832;51.186;3.236;2023-05-31T04:42:31;19.90;51.20
13521;DHT22;6832;51.186;3.236;2023-05-31T04:45:00;19.80;51.20
13521;DHT22;6832;51.186;3.236;2023-05-31T04:47:30;19.90;51.20
13521;DHT22;6832;51.186;3.236;2023-05-31T04:50:01;19.80;51.20
13521;DHT22;6832;51.186;3.236;2023-05-31T04:52:29;19.80;51.20
13521;DHT22;6832;51.186;3.236;2023-05-31T04:54:59;19.80;51.20
13521;DHT22;6832;51.186;3.236;2023-05-31T04:57:29;19.80;51.20
13521;DHT22;6832;51.186;3.236;2023-05-31T04:59:56;19.80;51.20
13521;DHT22;6832;51.186;3.236;2023-05-31T05:02:29;19.80;51.30
13521;DHT22;6832;51.186;3.236;2023-05-31T05:04:57;19.80;51.40
13521;DHT22;6832;51.186;3.236;2023-05-31T05:07:25;19.80;51.40
13521;DHT22;6832;51.186;3.236;2023-05-31T05:09:52;19.80;52.00
13521;DHT22;6832;51.186;3.236;2023-05-31T05:12:19;19.80;51.40
13521;DHT22;6832;51.186;3.236;2023-05-31T05:14:46;19.80;51.50
13521;DHT22;6832;51.186;3.236;2023-05-31T05:17:13;19.80;51.50
13521;DHT22;6832;51.186;3.236;2023-05-31T05:19:40;19.80;51.50
13521;DHT22;6832;51.186;3.236;2023-05-31T05:22:07;19.80;51.50
13521;DHT22;6832;51.186;3.236;2023-05-31T05:24:36;19.80;51.60
13521;DHT22;6832;51.186;3.236;2023-05-31T05:27:03;19.80;51.60
13521;DHT22;6832;51.186;3.236;2023-05-31T05:29:29;19.80;51.70
13521;DHT22;6832;51.186;3.236;2023-05-31T05:31:57;19.80;51.60
13521;DHT22;6832;51.186;3.236;2023-05-31T05:34:23;19.80;51.60
13521;DHT22;6832;51.186;3.236;2023-05-31T05:36:51;19.70;51.50
13521;DHT22;6832;51.186;3.236;2023-05-31T05:39:18;19.80;51.70
13521;DHT22;6832;51.186;3.236;2023-05-31T05:41:46;19.80;51.70
13521;DHT22;6832;51.186;3.236;2023-05-31T05:44:13;19.80;51.70
13521;DHT22;6832;51.186;3.236;2023-05-31T05:46:40;19.80;51.70
13521;DHT22;6832;51.186;3.236;2023-05-31T05:49:07;19.80;52.40
13521;DHT22;6832;51.186;3.236;2023-05-31T05:51:35;19.80;51.70
13521;DHT22;6832;51.186;3.236;2023-05-31T05:54:02;19.80;51.80
13521;DHT22;6832;51.186;3.236;2023-05-31T05:56:32;19.80;51.80
13521;DHT22;6832;51.186;3.236;2023-05-31T05:59:00;19.80;52.00
13521;DHT22;6832;51.186;3.236;2023-05-31T06:01:28;19.80;52.00
13521;DHT22;6832;51.186;3.236;2023-05-31T06:03:55;19.80;51.90
13521;DHT22;6832;51.186;3.236;2023-05-31T06:06:22;19.80;51.90
13521;DHT22;6832;51.186;3.236;2023-05-31T06:08:50;19.80;51.90
13521;DHT22;6832;51.186;3.236;2023-05-31T06:11:20;19.80;51.80
13521;DHT22;6832;51.186;3.236;2023-05-31T06:13:48;19.90;51.90
13521;DHT22;6832;51.186;3.236;2023-05-31T06:16:25;19.90;52.00
13521;DHT22;6832;51.186;3.236;2023-05-31T06:18:53;19.90;51.90
13521;DHT22;6832;51.186;3.236;2023-05-31T06:21:24;19.90;51.90
13521;DHT22;6832;51.186;3.236;2023-05-31T06:23:52;19.90;51.90
13521;DHT22;6832;51.186;3.236;2023-05-31T06:26:20;19.90;51.90
13521;DHT22;6832;51.186;3.236;2023-05-31T06:28:48;19.90;52.00
13521;DHT22;6832;51.186;3.236;2023-05-31T06:31:15;19.90;51.90
13521;DHT22;6832;51.186;3.236;2023-05-31T06:33:43;19.90;51.90
13521;DHT22;6832;51.186;3.236;2023-05-31T06:36:10;19.90;51.90
13521;DHT22;6832;51.186;3.236;2023-05-31T06:38:38;19.90;52.00
13521;DHT22;6832;51.186;3.236;2023-05-31T06:41:04;20.00;52.00
13521;DHT22;6832;51.186;3.236;2023-05-31T06:43:32;19.90;51.90
13521;DHT22;6832;51.186;3.236;2023-05-31T06:45:59;20.00;52.00
13521;DHT22;6832;51.186;3.236;2023-05-31T06:48:26;19.90;52.00
13521;DHT22;6832;51.186;3.236;2023-05-31T06:50:59;20.00;52.10
13521;DHT22;6832;51.186;3.236;2023-05-31T06:53:26;20.00;52.10
13521;DHT22;6832;51.186;3.236;2023-05-31T06:55:53;20.00;52.10
13521;DHT22;6832;51.186;3.236;2023-05-31T06:58:20;20.10;52.30
13521;DHT22;6832;51.186;3.236;2023-05-31T07:00:47;20.00;52.20
13521;DHT22;6832;51.186;3.236;2023-05-31T07:03:14;20.00;52.20
13521;DHT22;6832;51.186;3.236;2023-05-31T07:05:43;20.10;52.30
13521;DHT22;6832;51.186;3.236;2023-05-31T07:08:11;20.10;52.20
13521;DHT22;6832;51.186;3.236;2023-05-31T07:10:40;20.10;52.20
13521;DHT22;6832;51.186;3.236;2023-05-31T07:13:07;20.10;52.20
13521;DHT22;6832;51.186;3.236;2023-05-31T07:15:34;20.10;52.10
13521;DHT22;6832;51.186;3.236;2023-05-31T07:18:04;20.10;52.10
13521;DHT22;6832;51.186;3.236;2023-05-31T07:20:31;20.10;52.20
13521;DHT22;6832;51.186;3.236;2023-05-31T07:22:57;20.10;52.10
13521;DHT22;6832;51.186;3.236;2023-05-31T07:25:27;20.20;52.30
13521;DHT22;6832;51.186;3.236;2023-05-31T07:27:55;20.20;52.30
13521;DHT22;6832;51.186;3.236;2023-05-31T07:30:25;20.20;52.30
13521;DHT22;6832;51.186;3.236;2023-05-31T07:32:57;20.20;52.50
13521;DHT22;6832;51.186;3.236;2023-05-31T07:35:24;20.20;52.30
13521;DHT22;6832;51.186;3.236;2023-05-31T07:37:51;20.20;52.30
13521;DHT22;6832;51.186;3.236;2023-05-31T07:40:17;20.30;52.30
13521;DHT22;6832;51.186;3.236;2023-05-31T07:42:46;20.30;52.40
13521;DHT22;6832;51.186;3.236;2023-05-31T07:45:15;20.30;52.40
13521;DHT22;6832;51.186;3.236;2023-05-31T07:47:43;20.30;52.40
13521;DHT22;6832;51.186;3.236;2023-05-31T07:50:10;20.30;52.30
13521;DHT22;6832;51.186;3.236;2023-05-31T07:52:37;20.30;52.30
13521;DHT22;6832;51.186;3.236;2023-05-31T07:55:07;20.40;52.40
13521;DHT22;6832;51.186;3.236;2023-05-31T07:57:34;20.40;52.50
13521;DHT22;6832;51.186;3.236;2023-05-31T08:00:04;20.40;52.50
13521;DHT22;6832;51.186;3.236;2023-05-31T08:02:34;20.40;52.50
13521;DHT22;6832;51.186;3.236;2023-05-31T08:05:02;20.40;52.50
13521;DHT22;6832;51.186;3.236;2023-05-31T08:07:30;20.40;52.50
13521;DHT22;6832;51.186;3.236;2023-05-31T08:10:03;20.50;52.50
13521;DHT22;6832;51.186;3.236;2023-05-31T08:12:30;20.50;52.60
13521;DHT22;6832;51.186;3.236;2023-05-31T08:14:57;20.50;52.50
13521;DHT22;6832;51.186;3.236;2023-05-31T08:17:26;20.50;52.60
13521;DHT22;6832;51.186;3.236;2023-05-31T08:19:53;20.50;52.60
13521;DHT22;6832;51.186;3.236;2023-05-31T08:22:22;20.50;52.60
13521;DHT22;6832;51.186;3.236;2023-05-31T08:24:49;20.60;52.70
13521;DHT22;6832;51.186;3.236;2023-05-31T08:27:16;20.60;52.70
13521;DHT22;6832;51.186;3.236;2023-05-31T08:29:46;20.60;52.70
13521;DHT22;6832;51.186;3.236;2023-05-31T08:32:13;20.70;52.80
13521;DHT22;6832;51.186;3.236;2023-05-31T08:34:41;20.70;52.80
13521;DHT22;6832;51.186;3.236;2023-05-31T08:37:11;20.70;52.80
13521;DHT22;6832;51.186;3.236;2023-05-31T08:39:39;20.70;52.80
13521;DHT22;6832;51.186;3.236;2023-05-31T08:42:12;20.80;52.90
13521;DHT22;6832;51.186;3.236;2023-05-31T08:44:47;20.80;53.00
13521;DHT22;6832;51.186;3.236;2023-05-31T08:47:34;20.80;53.40
13521;DHT22;6832;51.186;3.236;2023-05-31T08:50:05;20.80;53.80
13521;DHT22;6832;51.186;3.236;2023-05-31T08:52:32;20.90;53.40
13521;DHT22;6832;51.186;3.236;2023-05-31T08:55:01;20.90;53.40
13521;DHT22;6832;51.186;3.236;2023-05-31T08:57:30;20.90;53.40
13521;DHT22;6832;51.186;3.236;2023-05-31T08:59:57;20.90;53.40
13521;DHT22;6832;51.186;3.236;2023-05-31T09:02:25;21.00;53.40
13521;DHT22;6832;51.186;3.236;2023-05-31T09:04:52;21.00;53.40
13521;DHT22;6832;51.186;3.236;2023-05-31T09:07:20;21.10;53.50
13521;DHT22;6832;51.186;3.236;2023-05-31T09:09:47;21.10;53.50
13521;DHT22;6832;51.186;3.236;2023-05-31T09:12:15;21.20;53.70
13521;DHT22;6832;51.186;3.236;2023-05-31T09:14:42;21.20;53.60
13521;DHT22;6832;51.186;3.236;2023-05-31T09:17:10;21.20;53.60
13521;DHT22;6832;51.186;3.236;2023-05-31T09:19:40;21.30;53.70
13521;DHT22;6832;51.186;3.236;2023-05-31T09:22:15;21.30;53.70
13521;DHT22;6832;51.186;3.236;2023-05-31T09:24:50;21.40;53.80
13521;DHT22;6832;51.186;3.236;2023-05-31T09:27:21;21.40;53.80
13521;DHT22;6832;51.186;3.236;2023-05-31T09:29:52;21.40;54.40
13521;DHT22;6832;51.186;3.236;2023-05-31T09:32:22;21.50;53.80
13521;DHT22;6832;51.186;3.236;2023-05-31T09:34:49;21.50;53.70
13521;DHT22;6832;51.186;3.236;2023-05-31T09:37:24;21.50;53.70
13521;DHT22;6832;51.186;3.236;2023-05-31T09:39:58;21.60;53.90
13521;DHT22;6832;51.186;3.236;2023-05-31T09:42:29;21.60;53.90
13521;DHT22;6832;51.186;3.236;2023-05-31T09:44:56;21.70;53.80
13521;DHT22;6832;51.186;3.236;2023-05-31T09:47:28;21.70;53.80
13521;DHT22;6832;51.186;3.236;2023-05-31T09:49:56;21.70;53.80
13521;DHT22;6832;51.186;3.236;2023-05-31T09:52:26;21.80;53.90
13521;DHT22;6832;51.186;3.236;2023-05-31T09:54:56;21.80;53.90
13521;DHT22;6832;51.186;3.236;2023-05-31T09:57:31;21.90;54.00
13521;DHT22;6832;51.186;3.236;2023-05-31T09:59:59;21.90;54.00
13521;DHT22;6832;51.186;3.236;2023-05-31T10:02:27;22.00;54.00
13521;DHT22;6832;51.186;3.236;2023-05-31T10:05:01;22.00;54.00
13521;DHT22;6832;51.186;3.236;2023-05-31T10:07:28;22.00;54.10
13521;DHT22;6832;51.186;3.236;2023-05-31T10:09:57;22.00;54.00
13521;DHT22;6832;51.186;3.236;2023-05-31T10:12:26;22.10;54.00
13521;DHT22;6832;51.186;3.236;2023-05-31T10:14:59;22.10;54.10
13521;DHT22;6832;51.186;3.236;2023-05-31T10:17:29;22.10;54.10
13521;DHT22;6832;51.186;3.236;2023-05-31T10:19:59;22.20;54.10
13521;DHT22;6832;51.186;3.236;2023-05-31T10:22:29;22.20;54.10
13521;DHT22;6832;51.186;3.236;2023-05-31T10:25:02;22.30;54.20
13521;DHT22;6832;51.186;3.236;2023-05-31T10:27:36;22.30;54.70
13521;DHT22;6832;51.186;3.236;2023-05-31T10:30:09;22.30;54.50
13521;DHT22;6832;51.186;3.236;2023-05-31T10:32:40;22.40;54.60
13521;DHT22;6832;51.186;3.236;2023-05-31T10:35:09;22.50;54.50
13521;DHT22;6832;51.186;3.236;2023-05-31T10:37:36;22.50;54.40
13521;DHT22;6832;51.186;3.236;2023-05-31T10:40:10;22.50;54.40
13521;DHT22;6832;51.186;3.236;2023-05-31T10:42:44;22.60;54.60
13521;DHT22;6832;51.186;3.236;2023-05-31T10:45:21;22.60;54.60
13521;DHT22;6832;51.186;3.236;2023-05-31T10:47:53;22.60;54.60
13521;DHT22;6832;51.186;3.236;2023-05-31T10:50:23;22.70;54.60
13521;DHT22;6832;51.186;3.236;2023-05-31T10:52:51;22.70;54.50
13521;DHT22;6832;51.186;3.236;2023-05-31T10:55:21;22.70;54.50
13521;DHT22;6832;51.186;3.236;2023-05-31T10:57:54;22.80;54.60
13521;DHT22;6832;51.186;3.236;2023-05-31T11:00:23;22.80;54.60
13521;DHT22;6832;51.186;3.236;2023-05-31T11:02:52;22.90;54.60
13521;DHT22;6832;51.186;3.236;2023-05-31T11:05:21;22.90;54.60
13521;DHT22;6832;51.186;3.236;2023-05-31T11:07:49;23.00;54.60
13521;DHT22;6832;51.186;3.236;2023-05-31T11:10:26;23.00;54.60
13521;DHT22;6832;51.186;3.236;2023-05-31T11:12:56;23.10;54.80
13521;DHT22;6832;51.186;3.236;2023-05-31T11:15:41;23.10;54.70
13521;DHT22;6832;51.186;3.236;2023-05-31T11:18:16;23.10;54.80
13521;DHT22;6832;51.186;3.236;2023-05-31T11:20:47;23.20;55.40
13521;DHT22;6832;51.186;3.236;2023-05-31T11:23:26;23.20;54.60
13521;DHT22;6832;51.186;3.236;2023-05-31T11:26:11;23.20;54.80
13521;DHT22;6832;51.186;3.236;2023-05-31T11:28:59;23.30;54.80
13521;DHT22;6832;51.186;3.236;2023-05-31T11:31:58;23.30;54.80
13521;DHT22;6832;51.186;3.236;2023-05-31T11:34:31;23.40;54.90
13521;DHT22;6832;51.186;3.236;2023-05-31T11:37:00;23.40;54.70
13521;DHT22;6832;51.186;3.236;2023-05-31T11:39:28;23.50;54.80
13521;DHT22;6832;51.186;3.236;2023-05-31T11:41:57;23.50;54.80
13521;DHT22;6832;51.186;3.236;2023-05-31T11:44:29;23.50;54.80
13521;DHT22;6832;51.186;3.236;2023-05-31T11:47:06;23.50;54.90
13521;DHT22;6832;51.186;3.236;2023-05-31T11:49:36;23.50;54.90
13521;DHT22;6832;51.186;3.236;2023-05-31T11:52:04;23.60;54.80
13521;DHT22;6832;51.186;3.236;2023-05-31T11:54:32;23.60;54.80
13521;DHT22;6832;51.186;3.236;2023-05-31T11:57:02;23.70;54.90
13521;DHT22;6832;51.186;3.236;2023-05-31T11:59:30;23.70;54.90
13521;DHT22;6832;51.186;3.236;2023-05-31T12:02:00;23.70;54.90
13521;DHT22;6832;51.186;3.236;2023-05-31T12:04:35;23.80;55.00
13521;DHT22;6832;51.186;3.236;2023-05-31T12:07:03;23.80;55.00
13521;DHT22;6832;51.186;3.236;2023-05-31T12:09:32;23.90;55.00
13521;DHT22;6832;51.186;3.236;2023-05-31T12:11:59;23.90;55.00
13521;DHT22;6832;51.186;3.236;2023-05-31T12:14:28;23.90;55.00
13521;DHT22;6832;51.186;3.236;2023-05-31T12:16:55;24.00;55.00
13521;DHT22;6832;51.186;3.236;2023-05-31T12:19:22;24.00;55.00
13521;DHT22;6832;51.186;3.236;2023-05-31T12:21:52;24.10;55.10
13521;DHT22;6832;51.186;3.236;2023-05-31T12:24:19;24.10;55.10
13521;DHT22;6832;51.186;3.236;2023-05-31T12:26:48;24.10;55.10
13521;DHT22;6832;51.186;3.236;2023-05-31T12:29:16;24.10;55.10
13521;DHT22;6832;51.186;3.236;2023-05-31T12:31:45;24.20;55.20
13521;DHT22;6832;51.186;3.236;2023-05-31T12:34:13;24.20;55.20
13521;DHT22;6832;51.186;3.236;2023-05-31T12:36:44;24.30;55.30
13521;DHT22;6832;51.186;3.236;2023-05-31T12:39:14;24.30;55.30
13521;DHT22;6832;51.186;3.236;2023-05-31T12:41:42;24.30;55.30
13521;DHT22;6832;51.186;3.236;2023-05-31T12:44:12;24.40;55.30
13521;DHT22;6832;51.186;3.236;2023-05-31T12:46:42;24.40;55.30
13521;DHT22;6832;51.186;3.236;2023-05-31T12:49:18;24.40;55.30
13521;DHT22;6832;51.186;3.236;2023-05-31T12:51:57;24.50;55.40
13521;DHT22;6832;51.186;3.236;2023-05-31T12:54:31;24.50;55.40
13521;DHT22;6832;51.186;3.236;2023-05-31T12:57:01;24.50;55.30
13521;DHT22;6832;51.186;3.236;2023-05-31T12:59:28;24.60;55.40
13521;DHT22;6832;51.186;3.236;2023-05-31T13:01:56;24.60;55.30
13521;DHT22;6832;51.186;3.236;2023-05-31T13:04:25;24.70;55.40
13521;DHT22;6832;51.186;3.236;2023-05-31T13:06:52;24.60;55.30
13521;DHT22;6832;51.186;3.236;2023-05-31T13:09:23;24.70;55.40
13521;DHT22;6832;51.186;3.236;2023-05-31T13:11:51;24.80;55.40
13521;DHT22;6832;51.186;3.236;2023-05-31T13:14:19;24.80;55.40
13521;DHT22;6832;51.186;3.236;2023-05-31T13:16:48;24.80;55.50
13521;DHT22;6832;51.186;3.236;2023-05-31T13:19:15;24.90;55.60
13521;DHT22;6832;51.186;3.236;2023-05-31T13:21:41;24.90;55.60
13521;DHT22;6832;51.186;3.236;2023-05-31T13:24:08;25.00;55.70
13521;DHT22;6832;51.186;3.236;2023-05-31T13:26:36;25.00;55.70
13521;DHT22;6832;51.186;3.236;2023-05-31T13:29:07;25.00;55.50
13521;DHT22;6832;51.186;3.236;2023-05-31T13:31:34;25.10;55.60
13521;DHT22;6832;51.186;3.236;2023-05-31T13:34:01;25.20;55.60
13521;DHT22;6832;51.186;3.236;2023-05-31T13:36:29;25.20;55.60
13521;DHT22;6832;51.186;3.236;2023-05-31T13:38:56;25.30;55.60
13521;DHT22;6832;51.186;3.236;2023-05-31T13:41:23;25.30;55.50
13521;DHT22;6832;51.186;3.236;2023-05-31T13:43:50;25.40;55.50
13521;DHT22;6832;51.186;3.236;2023-05-31T13:46:18;25.40;55.50
13521;DHT22;6832;51.186;3.236;2023-05-31T13:48:45;25.50;55.50
13521;DHT22;6832;51.186;3.236;2023-05-31T13:51:12;25.50;55.50
13521;DHT22;6832;51.186;3.236;2023-05-31T13:53:41;25.60;55.50
13521;DHT22;6832;51.186;3.236;2023-05-31T13:56:08;25.60;55.40
13521;DHT22;6832;51.186;3.236;2023-05-31T13:58:35;25.60;55.40
13521;DHT22;6832;51.186;3.236;2023-05-31T14:01:02;25.70;55.30
13521;DHT22;6832;51.186;3.236;2023-05-31T14:03:31;25.70;55.30
13521;DHT22;6832;51.186;3.236;2023-05-31T14:05:58;25.70;55.20
13521;DHT22;6832;51.186;3.236;2023-05-31T14:08:25;25.70;55.20
13521;DHT22;6832;51.186;3.236;2023-05-31T14:10:52;25.80;55.30
13521;DHT22;6832;51.186;3.236;2023-05-31T14:13:19;25.80;55.20
13521;DHT22;6832;51.186;3.236;2023-05-31T14:15:47;25.80;55.20
13521;DHT22;6832;51.186;3.236;2023-05-31T14:18:14;25.80;55.10
13521;DHT22;6832;51.186;3.236;2023-05-31T14:20:42;25.80;55.10
13521;DHT22;6832;51.186;3.236;2023-05-31T14:23:12;25.90;55.20
13521;DHT22;6832;51.186;3.236;2023-05-31T14:25:39;25.90;55.10
13521;DHT22;6832;51.186;3.236;2023-05-31T14:28:06;25.90;55.10
13521;DHT22;6832;51.186;3.236;2023-05-31T14:30:34;25.90;55.00
13521;DHT22;6832;51.186;3.236;2023-05-31T14:33:01;25.90;55.10
13521;DHT22;6832;51.186;3.236;2023-05-31T14:35:30;25.90;55.00
13521;DHT22;6832;51.186;3.236;2023-05-31T14:37:58;25.90;55.00
13521;DHT22;6832;51.186;3.236;2023-05-31T14:40:25;25.90;55.00
13521;DHT22;6832;51.186;3.236;2023-05-31T14:42:53;25.90;54.90
13521;DHT22;6832;51.186;3.236;2023-05-31T14:45:21;25.90;54.90
13521;DHT22;6832;51.186;3.236;2023-05-31T14:47:48;26.00;55.00
13521;DHT22;6832;51.186;3.236;2023-05-31T14:50:15;26.00;54.90
13521;DHT22;6832;51.186;3.236;2023-05-31T14:52:43;26.00;54.90
13521;DHT22;6832;51.186;3.236;2023-05-31T14:55:11;26.00;54.90
13521;DHT22;6832;51.186;3.236;2023-05-31T14:57:38;26.00;54.90
13521;DHT22;6832;51.186;3.236;2023-05-31T15:00:07;26.00;54.90
13521;DHT22;6832;51.186;3.236;2023-05-31T15:02:34;26.00;54.80
13521;DHT22;6832;51.186;3.236;2023-05-31T15:05:02;26.00;54.80
13521;DHT22;6832;51.186;3.236;2023-05-31T15:07:34;26.00;54.80
13521;DHT22;6832;51.186;3.236;2023-05-31T15:10:01;26.00;54.80
13521;DHT22;6832;51.186;3.236;2023-05-31T15:12:30;26.00;54.80
13521;DHT22;6832;51.186;3.236;2023-05-31T15:14:57;26.00;54.70
13521;DHT22;6832;51.186;3.236;2023-05-31T15:17:24;26.00;54.70
13521;DHT22;6832;51.186;3.236;2023-05-31T15:19:52;26.00;54.70
13521;DHT22;6832;51.186;3.236;2023-05-31T15:22:19;26.00;54.70
13521;DHT22;6832;51.186;3.236;2023-05-31T15:24:45;26.00;54.70
13521;DHT22;6832;51.186;3.236;2023-05-31T15:27:13;26.00;54.70
13521;DHT22;6832;51.186;3.236;2023-05-31T15:29:41;26.00;54.70
13521;DHT22;6832;51.186;3.236;2023-05-31T15:32:08;26.00;54.70
13521;DHT22;6832;51.186;3.236;2023-05-31T15:34:35;26.00;54.70
13521;DHT22;6832;51.186;3.236;2023-05-31T15:37:02;26.00;54.70
13521;DHT22;6832;51.186;3.236;2023-05-31T15:39:29;26.00;54.70
13521;DHT22;6832;51.186;3.236;2023-05-31T15:41:55;26.00;54.70
13521;DHT22;6832;51.186;3.236;2023-05-31T15:44:22;26.00;54.70
13521;DHT22;6832;51.186;3.236;2023-05-31T15:46:54;26.00;54.70
13521;DHT22;6832;51.186;3.236;2023-05-31T15:49:22;26.00;54.70
13521;DHT22;6832;51.186;3.236;2023-05-31T15:51:49;26.00;54.70
13521;DHT22;6832;51.186;3.236;2023-05-31T15:54:16;26.00;54.70
13521;DHT22;6832;51.186;3.236;2023-05-31T15:56:46;26.00;54.60